Observations for Trim Market St
| Time | AQI | Temp °C | Hum % | Pres Pa | CO μg/m³ | H₂S μg/m³ | NO μg/m³ | NO₂ μg/m³ | O₃ μg/m³ | SO₂ μg/m³ | PM1 μg/m³ | PM2.5 μg/m³ | PM10 μg/m³ |
|---|---|---|---|---|---|---|---|---|---|---|---|---|---|
| Saturday 11 July 2026 | |||||||||||||
| 17:18 | 1 | 33.3 | 37 | 65,272 | 0 | 25.28 | 0 | 13.18 | 36.71 | 0.51 | 4.28 | 8.34 | 10.82 |
| 17:16 | 1 | 33.8 | 36 | 65,519 | 0 | 21.67 | 0 | 12.83 | 24.5 | 0.38 | 3.56 | 7.85 | 9.18 |
| 17:15 | 1 | 34 | 36 | 65,600 | 0 | 20.66 | 0 | 13.22 | 29.53 | 1.08 | 3.56 | 7.33 | 9.18 |
| 17:14 | 1 | 34.2 | 36 | 65,734 | 0 | 11.29 | 0 | 5.4 | 28.89 | 1.45 | 4.28 | 7.35 | 10.02 |
| 17:13 | 1 | 34.4 | 35 | 65,845 | 0 | 14.56 | 0 | 5.79 | 34.68 | 1.8 | 4.28 | 7.91 | 9.19 |
| 17:12 | 1 | 34.7 | 35 | 65,918 | 0 | 15.64 | 0 | 8.44 | 33.13 | 1.18 | 2.85 | 6.85 | 7.53 |
| 17:10 | 1 | 35.1 | 34 | 66,141 | 0 | 8.15 | 0 | 4.61 | 25.01 | 1.43 | 3.56 | 7.42 | 8.36 |
| 17:09 | 1 | 35.4 | 34 | 66,244 | 0 | 4.59 | 0 | 3.47 | 28.86 | 1.53 | 1.43 | 5.83 | 6.68 |
| 17:08 | 1 | 35.6 | 34 | 66,274 | 0 | 7 | 0 | 4.04 | 34.79 | 1.37 | 3.56 | 6.38 | 7.53 |
| 17:07 | 1 | 35.8 | 33 | 66,333 | 0 | 0 | 0 | 3.12 | 20.99 | 0.82 | 4.28 | 6.93 | 7.52 |
| 17:03 | 1 | 36.3 | 33 | 66,388 | 0 | 0 | 0 | 3.6 | 12.53 | 1.62 | 4.28 | 7.47 | 8.37 |
| 17:01 | 1 | 36.4 | 33 | 66,374 | 0 | 0 | 0 | 9.08 | 19.37 | 0.22 | 4.28 | 7.48 | 9.22 |
| 16:57 | 1 | 36.5 | 33 | 66,394 | 0 | 0 | 0 | 7.73 | 22.07 | 0.53 | 3.56 | 6.93 | 8.37 |
| 16:56 | 1 | 36.4 | 34 | 66,378 | 0 | 0 | 0 | 4.25 | 4.53 | 0.64 | 4.28 | 7.46 | 8.37 |
| 16:52 | 1 | 36.2 | 34 | 66,331 | 0 | 5.26 | 0 | 21.74 | 8.92 | 0 | 3.56 | 6.9 | 7.53 |
| 16:45 | 1 | 35.8 | 34 | 66,248 | 0 | 3.49 | 0 | 11.17 | 21.38 | 0.66 | 3.56 | 6.37 | 6.68 |
| 16:44 | 1 | 35.9 | 34 | 66,233 | 0 | 4.56 | 0 | 12.17 | 29.74 | 0.28 | 2.85 | 6.92 | 7.53 |
| 16:43 | 1 | 35.9 | 34 | 66,242 | 0 | 0 | 0 | 3.28 | 5.32 | 0.91 | 4.28 | 7.46 | 8.37 |
| 16:42 | 1 | 36 | 34 | 66,229 | 0 | 0 | 0 | 6.84 | 16.92 | 1.39 | 2.85 | 6.92 | 7.53 |
| 16:41 | 1 | 36.1 | 34 | 66,227 | 0 | 1.11 | 0 | 9.02 | 17.23 | 1.24 | 3.56 | 6.92 | 7.53 |